createdAt,value
2018-07-06T00:00:47.379Z,0.00
2018-07-06T00:01:48.177Z,0.00
2018-07-06T00:02:48.948Z,0.00
2018-07-06T00:03:49.725Z,0.00
2018-07-06T00:04:50.492Z,0.00
2018-07-06T00:05:51.270Z,0.00
2018-07-06T00:06:52.080Z,0.00
2018-07-06T00:07:52.852Z,0.00
2018-07-06T00:08:53.676Z,0.00
2018-07-06T00:09:53.400Z,0.00
2018-07-06T00:10:55.227Z,0.00
2018-07-06T00:11:54.984Z,0.00
2018-07-06T00:12:56.770Z,0.00
2018-07-06T00:13:57.526Z,0.00
2018-07-06T00:14:58.326Z,0.00
2018-07-06T00:15:59.089Z,0.00
2018-07-06T00:16:59.882Z,0.00
2018-07-06T00:18:00.702Z,0.00
2018-07-06T00:19:00.427Z,0.00
2018-07-06T00:20:02.202Z,0.00
2018-07-06T00:21:02.997Z,0.00
2018-07-06T00:22:03.875Z,0.00
2018-07-06T00:23:03.565Z,0.00
2018-07-06T00:24:05.348Z,0.00
2018-07-06T00:25:06.129Z,0.00
2018-07-06T00:26:06.881Z,0.00
2018-07-06T00:27:07.682Z,0.00
2018-07-06T00:28:08.452Z,0.00
2018-07-06T00:29:09.254Z,0.00
2018-07-06T00:30:10.011Z,0.00
2018-07-06T00:31:10.788Z,0.00
2018-07-06T00:32:11.594Z,0.00
2018-07-06T00:33:12.371Z,0.00
2018-07-06T00:34:13.139Z,0.00
2018-07-06T00:35:13.997Z,0.00
2018-07-06T00:36:13.697Z,0.00
2018-07-06T00:37:15.522Z,0.00
2018-07-06T00:38:16.300Z,0.00
2018-07-06T00:39:17.066Z,0.00
2018-07-06T00:40:17.848Z,0.00
2018-07-06T00:41:17.614Z,0.00
2018-07-06T00:42:19.410Z,0.00
2018-07-06T00:43:20.184Z,0.00
2018-07-06T00:44:20.961Z,0.00
2018-07-06T00:45:21.727Z,0.00
2018-07-06T00:46:22.498Z,0.00
2018-07-06T00:47:24.281Z,0.00
2018-07-06T00:48:24.048Z,0.00
2018-07-06T00:49:24.831Z,0.00
2018-07-06T00:50:25.604Z,0.00
2018-07-06T00:51:26.383Z,0.00
2018-07-06T00:52:27.185Z,0.00
2018-07-06T00:53:27.958Z,0.00
2018-07-06T00:54:28.752Z,0.00
2018-07-06T00:55:29.529Z,0.00
2018-07-06T00:56:30.306Z,0.00
2018-07-06T00:57:31.095Z,0.00
2018-07-06T00:58:31.884Z,0.00
2018-07-06T00:59:32.652Z,0.00
2018-07-06T01:00:33.447Z,0.00
2018-07-06T01:01:34.397Z,0.00
2018-07-06T01:02:34.034Z,0.00
2018-07-06T01:03:35.805Z,0.00
2018-07-06T01:04:36.589Z,0.00
2018-07-06T01:05:37.372Z,0.00
2018-07-06T01:06:38.143Z,0.00
2018-07-06T01:07:38.934Z,0.00
2018-07-06T01:08:39.723Z,0.00
2018-07-06T01:09:40.486Z,0.00
2018-07-06T01:10:41.262Z,0.00
2018-07-06T01:11:42.067Z,0.00
2018-07-06T01:12:41.839Z,0.00
2018-07-06T01:13:43.612Z,0.00
2018-07-06T01:14:44.387Z,0.00
2018-07-06T01:15:45.164Z,0.00
2018-07-06T01:16:45.930Z,0.00
2018-07-06T01:17:46.763Z,0.00
2018-07-06T01:18:47.534Z,0.00
2018-07-06T01:19:48.339Z,0.00
2018-07-06T01:20:49.088Z,0.00
2018-07-06T01:21:49.860Z,0.00
2018-07-06T01:22:53.680Z,0.00
2018-07-06T01:23:51.455Z,0.00
2018-07-06T01:24:52.232Z,0.00
2018-07-06T01:25:53.012Z,0.00
2018-07-06T01:26:53.805Z,0.00
2018-07-06T01:27:54.585Z,0.00
2018-07-06T01:28:55.355Z,0.00
2018-07-06T01:29:56.132Z,0.00
2018-07-06T01:30:56.917Z,0.00
2018-07-06T01:31:57.695Z,0.00
2018-07-06T01:32:58.485Z,0.00
2018-07-06T01:33:58.260Z,0.00
2018-07-06T01:35:00.031Z,0.00
2018-07-06T01:36:00.814Z,0.00
2018-07-06T01:37:01.592Z,0.00
2018-07-06T01:38:02.405Z,0.00
2018-07-06T01:39:03.160Z,0.00
2018-07-06T01:40:03.967Z,0.00
2018-07-06T01:41:04.709Z,0.00
2018-07-06T01:42:07.266Z,0.00
2018-07-06T01:43:06.548Z,0.00
2018-07-06T01:44:05.754Z,0.00
2018-07-06T01:45:20.469Z,0.00
2018-07-06T01:46:21.239Z,0.00
2018-07-06T01:47:22.012Z,0.00
2018-07-06T01:48:21.828Z,0.00
2018-07-06T01:49:23.585Z,0.00
2018-07-06T01:50:24.361Z,0.00
2018-07-06T01:51:25.129Z,0.00
2018-07-06T01:52:25.924Z,0.00
2018-07-06T01:53:26.709Z,0.00
2018-07-06T01:54:27.485Z,0.00
2018-07-06T01:55:28.255Z,0.00
2018-07-06T01:56:29.038Z,0.00
2018-07-06T01:57:29.816Z,0.00
2018-07-06T01:58:30.605Z,0.00
2018-07-06T01:59:31.398Z,0.00
2018-07-06T02:00:31.170Z,0.00
2018-07-06T02:01:32.963Z,0.00
2018-07-06T02:02:33.726Z,0.00
2018-07-06T02:03:35.813Z,0.00
2018-07-06T02:04:34.582Z,0.00
2018-07-06T02:05:35.357Z,0.00
2018-07-06T02:06:36.132Z,0.00
2018-07-06T02:07:36.902Z,0.00
2018-07-06T02:08:37.707Z,0.00
2018-07-06T02:09:38.473Z,0.00
2018-07-06T02:10:39.256Z,0.00
2018-07-06T02:11:40.017Z,0.00
2018-07-06T02:12:40.793Z,0.00
2018-07-06T02:13:41.589Z,0.00
2018-07-06T02:14:42.368Z,0.00
2018-07-06T02:15:43.146Z,0.00
2018-07-06T02:16:43.923Z,0.00
2018-07-06T02:17:44.699Z,0.05
2018-07-06T02:18:45.505Z,0.05
2018-07-06T02:19:46.304Z,0.05
2018-07-06T02:20:47.070Z,0.05
2018-07-06T02:21:47.830Z,0.05
2018-07-06T02:22:48.602Z,0.05
2018-07-06T02:23:49.407Z,0.05
2018-07-06T02:24:50.182Z,0.05
2018-07-06T02:25:50.965Z,0.05
2018-07-06T02:26:51.781Z,0.05
2018-07-06T02:27:52.507Z,0.05
2018-07-06T02:28:55.751Z,0.05
2018-07-06T02:29:53.095Z,0.09
2018-07-06T02:30:54.893Z,0.09
2018-07-06T02:31:55.650Z,0.14
2018-07-06T02:32:56.418Z,0.14
2018-07-06T02:33:57.219Z,0.18
2018-07-06T02:34:57.994Z,0.18
2018-07-06T02:35:58.783Z,0.18
2018-07-06T02:36:59.568Z,0.22
2018-07-06T02:38:00.341Z,0.22
2018-07-06T02:39:01.121Z,0.27
2018-07-06T02:40:01.946Z,0.31
2018-07-06T02:41:01.668Z,0.36
2018-07-06T02:42:03.444Z,0.41
2018-07-06T02:43:04.222Z,0.45
2018-07-06T02:44:05.022Z,0.54
2018-07-06T02:45:05.793Z,0.63
2018-07-06T02:46:06.565Z,0.72
2018-07-06T02:47:07.341Z,0.86
2018-07-06T02:48:08.113Z,0.99
2018-07-06T02:49:08.915Z,1.12
2018-07-06T02:50:09.691Z,1.35
2018-07-06T02:51:10.462Z,1.53
2018-07-06T02:52:11.242Z,1.71
2018-07-06T02:53:12.018Z,1.89
2018-07-06T02:54:12.818Z,2.16
2018-07-06T02:55:13.650Z,2.52
2018-07-06T02:56:13.373Z,2.92
2018-07-06T02:57:15.139Z,3.37
2018-07-06T02:58:15.941Z,3.83
2018-07-06T02:59:16.718Z,4.41
2018-07-06T03:00:17.488Z,5.04
2018-07-06T03:01:18.272Z,5.62
2018-07-06T03:02:19.040Z,6.48
2018-07-06T03:03:19.836Z,7.29
2018-07-06T03:04:20.645Z,8.28
2018-07-06T03:05:21.414Z,9.36
2018-07-06T03:06:22.177Z,10.57
2018-07-06T03:07:22.966Z,12.06
2018-07-06T03:08:23.722Z,13.59
2018-07-06T03:09:24.529Z,15.39
2018-07-06T03:10:25.298Z,17.28
2018-07-06T03:11:26.084Z,19.35
2018-07-06T03:12:26.859Z,21.78
2018-07-06T03:13:27.636Z,24.30
2018-07-06T03:14:28.417Z,27.18
2018-07-06T03:15:29.192Z,30.42
2018-07-06T03:16:29.972Z,33.66
2018-07-06T03:17:30.752Z,37.44
2018-07-06T03:18:31.524Z,41.22
2018-07-06T03:19:32.326Z,45.00
2018-07-06T03:20:33.091Z,48.24
2018-07-06T03:21:33.869Z,51.84
2018-07-06T03:22:34.641Z,56.16
2018-07-06T03:23:35.419Z,60.48
2018-07-06T03:24:36.214Z,64.80
2018-07-06T03:25:37.013Z,70.20
2018-07-06T03:26:37.768Z,75.60
2018-07-06T03:27:38.544Z,81.72
2018-07-06T03:28:39.682Z,87.12
2018-07-06T03:29:39.113Z,93.60
2018-07-06T03:30:40.894Z,100.80
2018-07-06T03:31:41.670Z,109.44
2018-07-06T03:32:42.446Z,118.80
2018-07-06T03:33:43.216Z,128.88
2018-07-06T03:34:44.025Z,138.96
2018-07-06T03:35:44.801Z,149.04
2018-07-06T03:36:52.778Z,158.40
2018-07-06T03:37:45.468Z,167.76
2018-07-06T03:38:46.173Z,177.84
2018-07-06T03:39:49.412Z,185.76
2018-07-06T03:41:23.695Z,200.16
2018-07-06T03:42:24.464Z,208.80
2018-07-06T03:43:25.245Z,218.88
2018-07-06T03:44:26.014Z,227.52
2018-07-06T03:45:26.835Z,236.16
2018-07-06T03:46:27.590Z,246.24
2018-07-06T03:47:28.362Z,257.76
2018-07-06T03:48:30.131Z,269.28
2018-07-06T03:49:29.924Z,279.36
2018-07-06T03:50:30.708Z,289.44
2018-07-06T03:51:32.479Z,299.52
2018-07-06T03:52:32.268Z,309.60
2018-07-06T03:53:33.026Z,322.56
2018-07-06T03:54:33.801Z,332.64
2018-07-06T03:55:34.593Z,342.72
2018-07-06T03:56:35.382Z,351.36
2018-07-06T03:57:36.150Z,358.56
2018-07-06T03:58:36.924Z,367.20
2018-07-06T03:59:37.700Z,374.40
2018-07-06T04:00:38.508Z,385.92
2018-07-06T04:01:39.269Z,397.44
2018-07-06T04:02:40.071Z,408.96
2018-07-06T04:03:40.825Z,423.36
2018-07-06T04:04:41.613Z,437.76
2018-07-06T04:06:05.818Z,455.04
2018-07-06T04:06:44.963Z,472.32
2018-07-06T04:08:06.431Z,489.60
2018-07-06T04:08:43.608Z,506.88
2018-07-06T04:09:45.379Z,521.28
2018-07-06T04:10:53.535Z,535.68
2018-07-06T04:11:45.982Z,552.96
2018-07-06T04:12:47.764Z,567.36
2018-07-06T04:13:48.546Z,584.64
2018-07-06T04:14:49.320Z,607.68
2018-07-06T04:15:50.121Z,636.48
2018-07-06T04:16:50.940Z,662.40
2018-07-06T04:17:50.660Z,691.20
2018-07-06T04:18:52.436Z,711.36
2018-07-06T04:19:53.260Z,722.88
2018-07-06T04:20:53.049Z,734.40
2018-07-06T04:21:56.992Z,748.80
2018-07-06T04:22:57.345Z,766.08
2018-07-06T04:23:55.425Z,783.36
2018-07-06T04:24:57.198Z,806.40
2018-07-06T04:26:17.139Z,829.44
2018-07-06T04:27:00.416Z,840.96
2018-07-06T04:27:59.205Z,852.48
2018-07-06T04:28:59.983Z,858.24
2018-07-06T04:30:00.750Z,864.00
2018-07-06T04:31:04.026Z,864.00
2018-07-06T04:32:04.125Z,864.00
2018-07-06T04:33:02.933Z,869.76
2018-07-06T04:34:02.772Z,869.76
2018-07-06T04:35:05.676Z,881.28
2018-07-06T04:36:06.582Z,898.56
2018-07-06T04:37:05.066Z,915.84
2018-07-06T04:38:09.362Z,944.64
2018-07-06T04:39:06.675Z,967.68
2018-07-06T04:40:07.441Z,1065.60
2018-07-06T04:41:09.253Z,1123.20
2018-07-06T04:42:10.043Z,1175.04
2018-07-06T04:43:10.804Z,1209.60
2018-07-06T04:44:14.043Z,1209.60
2018-07-06T04:45:11.359Z,1209.60
2018-07-06T04:46:13.162Z,1198.08
2018-07-06T04:47:13.982Z,1180.80
2018-07-06T04:48:13.726Z,1128.96
2018-07-06T04:49:15.492Z,1054.08
2018-07-06T04:50:16.295Z,1008.00
2018-07-06T04:51:16.065Z,996.48
2018-07-06T04:52:17.832Z,1048.32
2018-07-06T04:53:18.640Z,1180.80
2018-07-06T04:54:19.411Z,1261.44
2018-07-06T04:55:20.179Z,1238.40
2018-07-06T04:56:20.981Z,1226.88
2018-07-06T04:57:21.780Z,1261.44
2018-07-06T04:58:22.549Z,1486.08
2018-07-06T04:59:23.325Z,1624.32
2018-07-06T05:00:24.088Z,1624.32
2018-07-06T05:01:24.953Z,1704.96
2018-07-06T05:02:27.090Z,1866.24
2018-07-06T05:03:25.523Z,2039.04
2018-07-06T05:04:26.258Z,2165.76
2018-07-06T05:05:30.808Z,2257.92
2018-07-06T05:06:28.662Z,2373.12
2018-07-06T05:07:37.023Z,2280.96
2018-07-06T05:08:29.255Z,2211.84
2018-07-06T05:09:31.043Z,2223.36
2018-07-06T05:10:31.855Z,1889.28
2018-07-06T05:11:31.627Z,1624.32
2018-07-06T05:12:33.397Z,1365.12
2018-07-06T05:13:34.188Z,1261.44
2018-07-06T05:14:34.942Z,1261.44
2018-07-06T05:15:35.734Z,1244.16
2018-07-06T05:16:36.529Z,1192.32
2018-07-06T05:17:36.306Z,1296.00
2018-07-06T05:18:38.077Z,1440.00
2018-07-06T05:19:38.842Z,1486.08
2018-07-06T05:20:39.620Z,1486.08
2018-07-06T05:21:40.414Z,1601.28
2018-07-06T05:22:41.292Z,1681.92
2018-07-06T05:23:40.958Z,1866.24
2018-07-06T05:24:42.732Z,1912.32
2018-07-06T05:25:43.507Z,1981.44
2018-07-06T05:26:44.308Z,2119.68
2018-07-06T05:27:45.082Z,2039.04
2018-07-06T05:28:45.870Z,2027.52
2018-07-06T05:29:46.637Z,2073.60
2018-07-06T05:30:47.413Z,2085.12
2018-07-06T05:31:48.260Z,2499.84
2018-07-06T05:32:48.006Z,2856.96
2018-07-06T05:33:49.794Z,3064.32
2018-07-06T05:34:50.551Z,3087.36
2018-07-06T05:35:51.330Z,3087.36
2018-07-06T05:36:52.124Z,3271.68
2018-07-06T05:37:52.994Z,3571.20
2018-07-06T05:38:52.693Z,3686.40
2018-07-06T05:39:54.456Z,3594.24
2018-07-06T05:40:55.244Z,3571.20
2018-07-06T05:41:56.045Z,2914.56
2018-07-06T05:42:55.825Z,2234.88
2018-07-06T05:44:00.121Z,1900.80
2018-07-06T05:44:57.414Z,1762.56
2018-07-06T05:45:58.157Z,1751.04
2018-07-06T05:47:02.756Z,1820.16
2018-07-06T05:48:00.606Z,1808.64
2018-07-06T05:49:00.310Z,1635.84
2018-07-06T05:50:02.088Z,1693.44
2018-07-06T05:51:02.872Z,1831.68
2018-07-06T05:52:03.671Z,2027.52
2018-07-06T05:53:04.437Z,2384.64
2018-07-06T05:54:05.235Z,2753.28
2018-07-06T05:55:06.036Z,3202.56
2018-07-06T05:56:05.764Z,4055.04
2018-07-06T05:57:07.999Z,4723.20
2018-07-06T05:59:15.855Z,3824.64
2018-07-06T06:00:16.614Z,3893.76
2018-07-06T06:01:17.383Z,4423.68
2018-07-06T06:02:18.193Z,5137.92
2018-07-06T06:03:19.958Z,5806.08
2018-07-06T06:04:20.744Z,6359.04
2018-07-06T06:05:21.516Z,6681.60
2018-07-06T06:06:22.282Z,6958.08
2018-07-06T06:07:23.078Z,6681.60
2018-07-06T06:08:23.880Z,6312.96
2018-07-06T06:09:24.618Z,6543.36
2018-07-06T06:10:25.406Z,6865.92
2018-07-06T06:11:26.190Z,7188.48
2018-07-06T06:12:26.993Z,7418.88
2018-07-06T06:13:27.744Z,7418.88
2018-07-06T06:14:28.525Z,7372.80
2018-07-06T06:15:29.319Z,7464.96
2018-07-06T06:16:29.092Z,7511.04
2018-07-06T06:17:30.909Z,6819.84
2018-07-06T06:18:34.732Z,6174.72
2018-07-06T06:19:33.698Z,5091.84
2018-07-06T06:20:32.238Z,4377.60
2018-07-06T06:21:34.007Z,4216.32
2018-07-06T06:22:34.818Z,4538.88
2018-07-06T06:23:35.604Z,4792.32
2018-07-06T06:24:36.358Z,4792.32
2018-07-06T06:25:37.145Z,4469.76
2018-07-06T06:26:37.911Z,4815.36
2018-07-06T06:27:38.739Z,5898.24
2018-07-06T06:28:39.491Z,6082.56
2018-07-06T06:29:40.267Z,4861.44
2018-07-06T06:30:41.034Z,4792.32
2018-07-06T06:31:41.815Z,5368.32
2018-07-06T06:32:42.601Z,5345.28
2018-07-06T06:33:43.494Z,5575.68
2018-07-06T06:34:43.154Z,5806.08
2018-07-06T06:35:44.924Z,5990.40
2018-07-06T06:36:45.693Z,5713.92
2018-07-06T06:37:46.494Z,6036.48
2018-07-06T06:38:47.269Z,5829.12
2018-07-06T06:39:48.048Z,5322.24
2018-07-06T06:40:48.820Z,6036.48
2018-07-06T06:41:49.594Z,5322.24
2018-07-06T06:42:50.401Z,4976.64
2018-07-06T06:43:51.171Z,4815.36
2018-07-06T06:44:52.121Z,4561.92
2018-07-06T06:45:51.734Z,4492.80
2018-07-06T06:46:53.513Z,4700.16
2018-07-06T06:47:54.314Z,5391.36
2018-07-06T06:48:55.078Z,5552.64
2018-07-06T06:49:55.867Z,6497.28
2018-07-06T06:50:56.638Z,6635.52
2018-07-06T06:51:57.419Z,7096.32
2018-07-06T06:52:58.230Z,7234.56
2018-07-06T06:53:58.981Z,6819.84
2018-07-06T06:54:59.748Z,7096.32
2018-07-06T06:56:00.526Z,6958.08
2018-07-06T06:57:01.304Z,7649.28
2018-07-06T06:58:02.099Z,7603.20
2018-07-06T06:59:02.940Z,7833.60
2018-07-06T07:00:02.665Z,8202.24
2018-07-06T07:01:04.514Z,8432.64
2018-07-06T07:02:04.214Z,8801.28
2018-07-06T07:03:06.023Z,7418.88
2018-07-06T07:04:06.813Z,7234.56
2018-07-06T07:05:07.559Z,8064.00
2018-07-06T07:06:08.393Z,7326.72
2018-07-06T07:07:08.113Z,8017.92
2018-07-06T07:08:09.914Z,8893.44
2018-07-06T07:10:26.601Z,9308.16
2018-07-06T07:10:31.122Z,9031.68
2018-07-06T07:11:16.246Z,7418.88
2018-07-06T07:12:14.327Z,5690.88
2018-07-06T07:13:14.929Z,4792.32
2018-07-06T07:14:16.827Z,4469.76
2018-07-06T07:15:21.685Z,4538.88
2018-07-06T07:16:21.503Z,4746.24
2018-07-06T07:17:15.099Z,5137.92
2018-07-06T07:18:21.065Z,7004.16
2018-07-06T07:19:16.427Z,6220.80
2018-07-06T07:20:18.196Z,5391.36
2018-07-06T07:21:19.047Z,6635.52
2018-07-06T07:22:18.786Z,8663.04
2018-07-06T07:23:20.582Z,9308.16
2018-07-06T07:24:21.355Z,9308.16
2018-07-06T07:25:22.128Z,9907.20
2018-07-06T07:26:22.919Z,10229.76
2018-07-06T07:27:23.678Z,8616.96
2018-07-06T07:28:24.491Z,10506.24
2018-07-06T07:29:46.227Z,10598.40
2018-07-06T07:30:25.048Z,10321.92
2018-07-06T07:31:26.844Z,9630.72
2018-07-06T07:32:27.605Z,9907.20
2018-07-06T07:33:30.806Z,9216.00
2018-07-06T07:34:28.233Z,8801.28
2018-07-06T07:35:28.961Z,8847.36
2018-07-06T07:36:30.779Z,8110.08
2018-07-06T07:37:30.517Z,7004.16
2018-07-06T07:38:32.301Z,5667.84
2018-07-06T07:39:33.076Z,6681.60
2018-07-06T07:40:33.852Z,6681.60
2018-07-06T07:41:34.620Z,6405.12
2018-07-06T07:42:35.407Z,14653.44
2018-07-06T07:43:36.205Z,27279.36
2018-07-06T07:44:36.977Z,11243.52
2018-07-06T07:45:37.760Z,5990.40
2018-07-06T07:46:38.597Z,4631.04
2018-07-06T07:47:38.355Z,4907.52
2018-07-06T07:48:40.198Z,5068.80
2018-07-06T07:49:40.972Z,4953.60
2018-07-06T07:50:41.750Z,4677.12
2018-07-06T07:51:42.521Z,6865.92
2018-07-06T07:52:43.305Z,9077.76
2018-07-06T07:53:44.100Z,9216.00
2018-07-06T07:54:44.869Z,8847.36
2018-07-06T07:55:45.647Z,32256.00
2018-07-06T07:56:46.414Z,9676.80
2018-07-06T07:57:47.186Z,9538.56
2018-07-06T07:58:48.026Z,8202.24
2018-07-06T07:59:47.758Z,7326.72
2018-07-06T08:00:49.649Z,7741.44
2018-07-06T08:01:49.305Z,13547.52
2018-07-06T08:02:51.076Z,11612.16
2018-07-06T08:03:51.875Z,9630.72
2018-07-06T08:04:52.647Z,9538.56
2018-07-06T08:05:56.186Z,9446.40
2018-07-06T08:06:56.131Z,8110.08
2018-07-06T08:07:53.771Z,7464.96
2018-07-06T08:08:54.540Z,8202.24
2018-07-06T08:09:56.410Z,31703.04
2018-07-06T08:10:56.571Z,12257.28
2018-07-06T08:11:57.793Z,11197.44
2018-07-06T08:12:58.740Z,35942.40
2018-07-06T08:13:57.978Z,38707.20
2018-07-06T08:14:58.707Z,37232.64
2018-07-06T08:28:51.607Z,36495.36
2018-07-06T08:29:52.375Z,36126.72
2018-07-06T08:30:53.177Z,11105.28
2018-07-06T08:31:53.969Z,9400.32
2018-07-06T08:32:54.722Z,10229.76
2018-07-06T08:33:55.493Z,40181.76
2018-07-06T08:34:56.266Z,31334.40
2018-07-06T08:35:57.068Z,10183.68
2018-07-06T08:36:57.845Z,6681.60
2018-07-06T08:37:58.630Z,6266.88
2018-07-06T08:38:59.381Z,6543.36
2018-07-06T08:40:00.160Z,7879.68
2018-07-06T08:41:00.979Z,34467.84
2018-07-06T08:42:01.747Z,37048.32
2018-07-06T08:43:02.525Z,15667.20
2018-07-06T08:44:03.288Z,11151.36
2018-07-06T08:45:04.061Z,15575.04
2018-07-06T08:46:04.865Z,11980.80
2018-07-06T08:47:05.640Z,20643.84
2018-07-06T08:48:06.463Z,42946.56
2018-07-06T08:49:06.222Z,22855.68
2018-07-06T08:50:10.701Z,28938.24
2018-07-06T08:51:07.448Z,33730.56
2018-07-06T08:52:09.236Z,22671.36
2018-07-06T08:53:10.007Z,18984.96
2018-07-06T08:54:09.777Z,17326.08
2018-07-06T08:55:11.555Z,43315.20
2018-07-06T08:56:12.347Z,42393.60
2018-07-06T08:57:13.119Z,13547.52
2018-07-06T08:58:13.891Z,9584.64
2018-07-06T08:59:14.668Z,7787.52
2018-07-06T09:00:15.449Z,7280.64
2018-07-06T09:01:16.234Z,6819.84
2018-07-06T09:02:17.016Z,8064.00
2018-07-06T09:03:17.789Z,7096.32
2018-07-06T09:04:18.658Z,11013.12
2018-07-06T09:05:18.342Z,10506.24
2018-07-06T09:06:20.138Z,9538.56
2018-07-06T09:07:20.920Z,8202.24
2018-07-06T09:08:21.691Z,9031.68
2018-07-06T09:09:22.490Z,11197.44
2018-07-06T09:10:22.242Z,16957.44
2018-07-06T09:11:24.058Z,24145.92
2018-07-06T09:12:24.819Z,16312.32
2018-07-06T09:13:25.607Z,46632.96
2018-07-06T09:14:26.387Z,42946.56
2018-07-06T09:15:27.143Z,10506.24
2018-07-06T09:16:27.952Z,8340.48
2018-07-06T09:17:27.718Z,8801.28
2018-07-06T09:18:29.489Z,9492.48
2018-07-06T09:19:30.363Z,8755.20
2018-07-06T09:20:30.092Z,9907.20
2018-07-06T09:21:30.848Z,13455.36
2018-07-06T09:22:32.615Z,16404.48
2018-07-06T09:23:33.498Z,49029.12
2018-07-06T09:24:33.184Z,40181.76
2018-07-06T09:25:35.068Z,49397.76
2018-07-06T09:26:34.741Z,48660.48
2018-07-06T09:27:36.521Z,47185.92
2018-07-06T09:28:37.287Z,48291.84
2018-07-06T09:29:38.065Z,46817.28
2018-07-06T09:30:38.835Z,45158.40
2018-07-06T09:31:39.652Z,12441.60
2018-07-06T09:32:40.419Z,45342.72
2018-07-06T09:33:41.213Z,48660.48
2018-07-06T09:34:41.972Z,43499.52
2018-07-06T09:35:42.738Z,33177.60
2018-07-06T09:36:43.541Z,12257.28
2018-07-06T09:37:44.313Z,10414.08
2018-07-06T09:38:45.093Z,14929.92
2018-07-06T09:39:45.867Z,41656.32
2018-07-06T09:40:46.637Z,32808.96
2018-07-06T09:41:47.437Z,12257.28
2018-07-06T09:42:48.222Z,42024.96
2018-07-06T09:43:48.986Z,42762.24
2018-07-06T09:44:49.762Z,33546.24
2018-07-06T09:45:50.535Z,43683.84
2018-07-06T09:46:51.358Z,49397.76
2018-07-06T09:47:52.128Z,47001.60
2018-07-06T09:48:52.914Z,45895.68
2018-07-06T09:49:53.669Z,43868.16
2018-07-06T09:50:54.478Z,46448.64
2018-07-06T09:51:54.243Z,32440.32
2018-07-06T09:52:56.020Z,45711.36
2018-07-06T09:53:56.797Z,44421.12
2018-07-06T09:54:57.567Z,44789.76
2018-07-06T09:55:58.339Z,44421.12
2018-07-06T09:56:59.135Z,32256.00
2018-07-06T09:57:59.956Z,43315.20
2018-07-06T09:58:59.680Z,45711.36
2018-07-06T10:00:01.463Z,19445.76
2018-07-06T10:01:02.235Z,46448.64
2018-07-06T10:02:03.049Z,49766.40
2018-07-06T10:03:06.250Z,44789.76
2018-07-06T10:04:03.605Z,41472.00
2018-07-06T10:05:05.377Z,16404.48
2018-07-06T10:06:06.147Z,44789.76
2018-07-06T10:07:06.986Z,47554.56
2018-07-06T10:08:06.721Z,47554.56
2018-07-06T10:09:08.492Z,36864.00
2018-07-06T10:10:08.308Z,37232.64
2018-07-06T10:11:09.043Z,51240.96
2018-07-06T10:12:10.843Z,49029.12
2018-07-06T10:13:11.648Z,44974.08
2018-07-06T10:14:12.389Z,47001.60
2018-07-06T10:15:13.219Z,48291.84
2018-07-06T10:16:12.976Z,47923.20
2018-07-06T10:17:19.748Z,31518.72
2018-07-06T10:18:14.651Z,49766.40
2018-07-06T10:19:16.419Z,55664.64
2018-07-06T10:20:17.187Z,53084.16
2018-07-06T10:21:18.367Z,51240.96
2018-07-06T10:22:18.202Z,52346.88
2018-07-06T10:23:17.939Z,52346.88
2018-07-06T10:24:19.939Z,51240.96
2018-07-06T10:25:22.330Z,48660.48
2018-07-06T10:26:20.453Z,48291.84
2018-07-06T10:27:22.257Z,47554.56
2018-07-06T10:28:24.305Z,46817.28
2018-07-06T10:29:22.787Z,48291.84
2018-07-06T10:30:24.613Z,27832.32
2018-07-06T10:31:25.373Z,18984.96
2018-07-06T10:32:26.187Z,16220.16
2018-07-06T10:33:26.969Z,46080.00
2018-07-06T10:34:27.733Z,25989.12
2018-07-06T10:35:30.689Z,50503.68
2018-07-06T10:36:30.481Z,50503.68
2018-07-06T10:37:29.139Z,35573.76
2018-07-06T10:38:31.487Z,44789.76
2018-07-06T10:41:26.805Z,36495.36
2018-07-06T10:42:27.625Z,44974.08
2018-07-06T10:43:28.469Z,50503.68
2018-07-06T10:44:29.248Z,19906.56
2018-07-06T10:45:38.247Z,17510.40
2018-07-06T10:47:05.909Z,49397.76
2018-07-06T10:48:07.106Z,50135.04
2018-07-06T10:49:04.499Z,48660.48
2018-07-06T10:50:06.305Z,48660.48
2018-07-06T10:51:09.103Z,47185.92
2018-07-06T10:52:06.849Z,51609.60
2018-07-06T10:53:11.684Z,51609.60
2018-07-06T10:54:08.520Z,52346.88
2018-07-06T10:55:16.798Z,52346.88
2018-07-06T10:56:10.068Z,52346.88
2018-07-06T10:57:10.790Z,49397.76
2018-07-06T10:58:21.443Z,50135.04
2018-07-06T10:59:13.245Z,51978.24
2018-07-06T11:00:14.017Z,50872.32
2018-07-06T11:01:41.686Z,50135.04
2018-07-06T11:02:17.449Z,45711.36
2018-07-06T11:03:22.509Z,20551.68
2018-07-06T11:04:18.184Z,54190.08
2018-07-06T11:05:16.782Z,51609.60
2018-07-06T11:06:27.653Z,50503.68
2018-07-06T11:07:25.574Z,50872.32
2018-07-06T11:08:21.904Z,49397.76
2018-07-06T11:09:19.708Z,47554.56
2018-07-06T11:10:28.944Z,49029.12
2018-07-06T11:11:34.531Z,44789.76
2018-07-06T11:12:22.095Z,48291.84
2018-07-06T11:13:59.089Z,47554.56
2018-07-06T11:15:03.151Z,45527.04
2018-07-06T11:15:55.654Z,47185.92
2018-07-06T11:17:18.977Z,47001.60
2018-07-06T11:17:57.247Z,44605.44
2018-07-06T11:18:59.073Z,48660.48
2018-07-06T11:19:58.874Z,48660.48
2018-07-06T11:20:59.610Z,45711.36
2018-07-06T11:22:04.202Z,47554.56
2018-07-06T11:23:01.980Z,48660.48
2018-07-06T11:24:05.259Z,47554.56
2018-07-06T11:25:02.627Z,49766.40
2018-07-06T11:26:03.354Z,47923.20
2018-07-06T11:27:10.318Z,48291.84
2018-07-06T11:28:13.105Z,46264.32
2018-07-06T11:29:05.709Z,45342.72
2018-07-06T11:30:08.032Z,46632.96
2018-07-06T11:31:10.033Z,43868.16
2018-07-06T11:32:15.059Z,46080.00
2018-07-06T11:33:08.424Z,45895.68
2018-07-06T11:34:10.234Z,44974.08
2018-07-06T11:35:46.382Z,50135.04
2018-07-06T11:36:59.397Z,49397.76
2018-07-06T11:37:39.269Z,49029.12
2018-07-06T11:38:41.108Z,49766.40
2018-07-06T11:39:40.833Z,47923.20
2018-07-06T11:40:42.671Z,44421.12
2018-07-06T11:41:42.448Z,44974.08
2018-07-06T11:42:43.188Z,45527.04
2018-07-06T11:43:45.025Z,46632.96
2018-07-06T11:44:44.777Z,47185.92
2018-07-06T11:45:46.570Z,45895.68
2018-07-06T11:46:53.350Z,45711.36
2018-07-06T11:47:48.109Z,46080.00
2018-07-06T11:48:48.911Z,44605.44
2018-07-06T11:49:49.697Z,45711.36
2018-07-06T11:50:52.932Z,43868.16
2018-07-06T11:51:50.335Z,42762.24
2018-07-06T11:52:52.077Z,46080.00
2018-07-06T11:53:52.857Z,47001.60
2018-07-06T11:54:53.633Z,46080.00
2018-07-06T11:55:57.238Z,44605.44
2018-07-06T11:56:55.003Z,44236.80
2018-07-06T11:57:55.771Z,44052.48
2018-07-06T11:59:02.434Z,44421.12
2018-07-06T11:59:56.237Z,44421.12
2018-07-06T12:00:58.048Z,42577.92
2018-07-06T12:01:58.855Z,42762.24
2018-07-06T12:03:01.030Z,43868.16
2018-07-06T12:03:59.445Z,43683.84
2018-07-06T12:05:00.173Z,43315.20
2018-07-06T12:06:02.009Z,43130.88
2018-07-06T12:07:02.763Z,42209.28
2018-07-06T12:08:03.584Z,43683.84
2018-07-06T12:09:03.314Z,42393.60
2018-07-06T12:10:05.098Z,42393.60
2018-07-06T12:11:05.954Z,42024.96
2018-07-06T12:12:08.438Z,39813.12
2018-07-06T12:13:07.209Z,43499.52
2018-07-06T12:14:07.991Z,43130.88
2018-07-06T12:15:10.966Z,42024.96
2018-07-06T12:16:08.588Z,42209.28
2018-07-06T12:17:12.953Z,41656.32
2018-07-06T12:18:12.339Z,41840.64
2018-07-06T12:19:24.280Z,40734.72
2018-07-06T12:20:11.732Z,40550.40
2018-07-06T12:21:13.740Z,41287.68
2018-07-06T12:22:18.546Z,38707.20
2018-07-06T12:23:21.068Z,39628.80
2018-07-06T12:25:18.403Z,39813.12
2018-07-06T12:25:36.555Z,37048.32
2018-07-06T12:26:18.178Z,37969.92
2018-07-06T12:27:22.090Z,38891.52
2018-07-06T12:29:04.068Z,38338.56
2018-07-06T12:29:20.278Z,37416.96
2018-07-06T12:30:18.896Z,38154.24
2018-07-06T12:31:57.501Z,34652.16
2018-07-06T12:32:20.505Z,33361.92
2018-07-06T12:33:22.274Z,36311.04
2018-07-06T12:34:23.784Z,37785.60
2018-07-06T12:35:22.510Z,36311.04
2018-07-06T12:36:24.386Z,34467.84
2018-07-06T12:37:24.120Z,33546.24
2018-07-06T12:38:25.883Z,32808.96
2018-07-06T12:39:26.668Z,33546.24
2018-07-06T12:40:33.454Z,34467.84
2018-07-06T12:41:28.306Z,34836.48
2018-07-06T12:42:28.023Z,34836.48
2018-07-06T12:43:32.776Z,35758.08
2018-07-06T12:44:29.484Z,35389.44
2018-07-06T12:45:31.255Z,34099.20
2018-07-06T12:46:32.066Z,29491.20